LSGG/GVA METAR and TAF weather

Enter ICAO airport designator
Station Type Date Time Source
LSGG METAR 2020/03/28 08:50 UTC NOAA

LSGG 280850Z VRB02KT CAVOK 10/02 Q1017 NOSIG


Station Type Date Time Source
LSGG Decoded METAR 2020/03/28 08:50 UTC NOAA

Geneve-Cointrin, Switzerland (LSGG) 46-15N 006-08E 416M
Mar 28, 2020 - 04:50 AM EDT / 2020.03.28 0850 UTC
Wind: Variable at 2 MPH (2 KT):0
Visibility: greater than 7 mile(s):0
Temperature: 50 F (10 C)
Dew Point: 35 F (2 C)
Relative Humidity: 57%
Pressure (altimeter): 30.03 in. Hg (1017 hPa)
ob: LSGG 280850Z VRB02KT CAVOK 10/02 Q1017 NOSIG
cycle: 9

Station Type Date Time Source
LSGG TAF 2020/03/28 09:37 UTC NOAA

TAF LSGG 280825Z 2809/2915 05006KT CAVOK TX15/2815Z TN04/2905Z TX12/2915Z

Example: see airport list